Time,TemperatureF,DewpointF,PressureIn,WindDirection,WindDirectionDegrees,WindSpeedMPH,WindSpeedGustMPH,Humidity,HourlyPrecipIn,Conditions,Clouds,dailyrainin,SoftwareType,DateUTC
2013-07-23 00:01:00,75.4,73.2,29.68,North,5,0.0,1.0,93,0.00,,,0.00,VWS V14.01,2013-07-23 04:01:00,
2013-07-23 00:11:00,75.4,73.2,29.68,North,5,0.0,1.0,93,0.00,,,0.00,VWS V14.01,2013-07-23 04:11:00,
2013-07-23 00:21:00,75.5,73.3,29.67,North,5,0.0,1.0,93,0.00,,,0.00,VWS V14.01,2013-07-23 04:21:00,
2013-07-23 00:31:00,75.6,73.8,29.66,North,5,0.0,1.0,94,0.00,,,0.00,VWS V14.01,2013-07-23 04:31:00,
2013-07-23 00:41:00,75.6,73.4,29.66,North,5,0.0,1.0,93,0.00,,,0.00,VWS V14.01,2013-07-23 04:41:00,
2013-07-23 00:51:00,75.7,73.8,29.66,North,5,0.0,1.0,94,0.00,,,0.00,VWS V14.01,2013-07-23 04:51:00,
2013-07-23 01:01:00,75.8,73.9,29.64,North,5,0.0,0.0,94,0.00,,,0.00,VWS V14.01,2013-07-23 05:01:00,
2013-07-23 01:11:00,75.8,73.9,29.64,North,5,0.0,1.0,94,0.00,,,0.00,VWS V14.01,2013-07-23 05:11:00,
2013-07-23 01:21:00,75.9,74.1,29.64,North,5,0.0,1.0,94,0.00,,,0.00,VWS V14.01,2013-07-23 05:21:00,
2013-07-23 01:30:00,76.0,74.2,29.64,North,5,0.0,1.0,94,0.00,,,0.00,VWS V14.01,2013-07-23 05:30:00,
2013-07-23 01:41:00,76.1,74.2,29.64,North,5,0.0,2.0,94,0.00,,,0.00,VWS V14.01,2013-07-23 05:41:00,
2013-07-23 01:51:00,76.2,74.3,29.64,North,5,0.0,1.0,94,0.00,,,0.00,VWS V14.01,2013-07-23 05:51:00,
2013-07-23 02:01:00,76.2,74.3,29.62,North,5,0.0,2.0,94,0.00,,,0.00,VWS V14.01,2013-07-23 06:01:00,
2013-07-23 02:11:00,76.2,74.3,29.62,North,5,0.0,1.0,94,0.00,,,0.00,VWS V14.01,2013-07-23 06:11:00,
2013-07-23 02:21:00,76.2,74.3,29.61,North,5,0.0,1.0,94,0.00,,,0.00,VWS V14.01,2013-07-23 06:21:00,
2013-07-23 02:31:00,76.3,74.4,29.61,North,5,0.0,1.0,94,0.00,,,0.00,VWS V14.01,2013-07-23 06:31:00,
2013-07-23 02:41:00,76.3,74.8,29.61,North,5,1.0,1.0,95,0.00,,,0.00,VWS V14.01,2013-07-23 06:41:00,
2013-07-23 02:51:00,76.4,74.6,29.60,North,5,0.0,1.0,94,0.00,,,0.00,VWS V14.01,2013-07-23 06:51:00,
2013-07-23 03:01:00,76.4,74.6,29.59,North,5,1.0,2.0,94,0.00,,,0.00,VWS V14.01,2013-07-23 07:01:00,
2013-07-23 03:11:00,76.4,74.6,29.59,North,5,0.0,1.0,94,0.00,,,0.00,VWS V14.01,2013-07-23 07:11:00,
2013-07-23 03:21:00,76.5,75.0,29.59,North,5,0.0,1.0,95,0.00,,,0.00,VWS V14.01,2013-07-23 07:21:00,
2013-07-23 03:31:00,76.5,75.0,29.59,North,5,0.0,2.0,95,0.00,,,0.00,VWS V14.01,2013-07-23 07:31:00,
2013-07-23 03:41:00,76.6,75.1,29.59,North,5,0.0,2.0,95,0.00,,,0.00,VWS V14.01,2013-07-23 07:41:00,
2013-07-23 03:50:00,76.6,75.1,29.58,North,5,1.0,1.0,95,0.00,,,0.00,VWS V14.01,2013-07-23 07:50:00,
2013-07-23 04:01:00,76.6,75.1,29.58,North,5,1.0,2.0,95,0.00,,,0.00,VWS V14.01,2013-07-23 08:01:00,
2013-07-23 04:11:00,76.7,75.2,29.58,North,5,2.0,2.0,95,0.00,,,0.00,VWS V14.01,2013-07-23 08:11:00,
2013-07-23 04:21:00,76.7,75.2,29.57,North,5,0.0,2.0,95,0.00,,,0.00,VWS V14.01,2013-07-23 08:21:00,
2013-07-23 04:31:00,76.6,75.4,29.56,North,5,0.0,1.0,96,0.00,,,0.00,VWS V14.01,2013-07-23 08:31:00,
2013-07-23 04:41:00,76.6,75.4,29.56,North,5,0.0,1.0,96,0.00,,,0.00,VWS V14.01,2013-07-23 08:41:00,
2013-07-23 04:51:00,76.5,75.3,29.56,North,5,0.0,2.0,96,0.01,,,0.01,VWS V14.01,2013-07-23 08:51:00,
2013-07-23 05:01:00,76.4,75.2,29.56,North,5,0.0,2.0,96,0.01,,,0.01,VWS V14.01,2013-07-23 09:01:00,
2013-07-23 05:11:00,76.4,75.5,29.56,North,5,0.0,1.0,97,0.01,,,0.01,VWS V14.01,2013-07-23 09:11:00,
2013-07-23 05:21:00,76.3,75.4,29.57,North,5,0.0,1.0,97,0.01,,,0.01,VWS V14.01,2013-07-23 09:21:00,
2013-07-23 05:31:00,76.3,75.4,29.57,North,5,0.0,3.0,97,0.02,,,0.02,VWS V14.01,2013-07-23 09:31:00,
2013-07-23 05:41:00,76.2,75.3,29.57,North,5,0.0,3.0,97,0.02,,,0.02,VWS V14.01,2013-07-23 09:41:00,
2013-07-23 05:51:00,76.2,75.3,29.56,North,5,0.0,1.0,97,0.02,,,0.02,VWS V14.01,2013-07-23 09:51:00,
2013-07-23 06:01:00,76.2,75.3,29.56,North,5,0.0,1.0,97,0.02,,,0.03,VWS V14.01,2013-07-23 10:01:00,
2013-07-23 06:11:00,76.1,75.2,29.56,North,5,0.0,2.0,97,0.03,,,0.04,VWS V14.01,2013-07-23 10:11:00,
2013-07-23 06:21:00,76.2,75.3,29.55,North,5,1.0,2.0,97,0.04,,,0.05,VWS V14.01,2013-07-23 10:21:00,
2013-07-23 06:31:00,76.1,75.5,29.54,North,5,0.0,2.0,98,0.04,,,0.05,VWS V14.01,2013-07-23 10:31:00,
2013-07-23 06:41:00,76.1,75.5,29.54,North,5,0.0,3.0,98,0.04,,,0.06,VWS V14.01,2013-07-23 10:41:00,
2013-07-23 06:51:00,76.0,75.4,29.55,North,5,1.0,2.0,98,0.05,,,0.07,VWS V14.01,2013-07-23 10:51:00,
2013-07-23 07:01:00,76.0,75.4,29.54,North,5,0.0,2.0,98,0.06,,,0.08,VWS V14.01,2013-07-23 11:01:00,
2013-07-23 07:11:00,75.9,75.3,29.54,North,5,0.0,2.0,98,0.05,,,0.08,VWS V14.01,2013-07-23 11:11:00,
2013-07-23 07:21:00,75.9,75.3,29.53,North,5,2.0,3.0,98,0.04,,,0.08,VWS V14.01,2013-07-23 11:21:00,
2013-07-23 07:31:00,75.9,75.3,29.53,North,5,0.0,2.0,98,0.03,,,0.08,VWS V14.01,2013-07-23 11:31:00,
2013-07-23 07:41:00,75.9,75.3,29.53,North,5,0.0,3.0,98,0.03,,,0.08,VWS V14.01,2013-07-23 11:41:00,
2013-07-23 07:51:00,75.9,75.3,29.53,North,5,2.0,2.0,98,0.02,,,0.08,VWS V14.01,2013-07-23 11:51:00,
2013-07-23 08:01:00,75.9,75.3,29.53,North,5,0.0,2.0,98,0.01,,,0.08,VWS V14.01,2013-07-23 12:01:00,
2013-07-23 08:11:00,76.0,75.4,29.53,North,5,0.0,2.0,98,0.00,,,0.08,VWS V14.01,2013-07-23 12:11:00,
2013-07-23 08:21:00,76.1,75.5,29.53,North,5,1.0,2.0,98,0.00,,,0.08,VWS V14.01,2013-07-23 12:21:00,
2013-07-23 08:31:00,76.3,76.0,29.52,North,5,1.0,2.0,99,0.00,,,0.08,VWS V14.01,2013-07-23 12:31:00,
2013-07-23 08:41:00,76.4,76.1,29.52,North,5,0.0,2.0,99,0.00,,,0.08,VWS V14.01,2013-07-23 12:41:00,
2013-07-23 08:51:00,76.5,76.2,29.52,North,5,0.0,3.0,99,0.00,,,0.08,VWS V14.01,2013-07-23 12:51:00,
2013-07-23 09:01:00,76.5,75.9,29.50,North,350,0.0,3.0,98,0.00,,,0.08,VWS V14.01,2013-07-23 13:01:00,
2013-07-23 09:11:00,76.8,76.5,29.50,North,350,0.0,3.0,99,0.00,,,0.08,VWS V14.01,2013-07-23 13:11:00,
2013-07-23 09:21:00,77.2,76.9,29.49,North,350,3.0,4.0,99,0.00,,,0.08,VWS V14.01,2013-07-23 13:21:00,
2013-07-23 09:31:00,77.2,76.6,29.50,WSW,243,1.0,3.0,98,0.00,,,0.08,VWS V14.01,2013-07-23 13:31:00,
2013-07-23 09:41:00,77.2,76.6,29.50,SW,232,1.0,4.0,98,0.00,,,0.08,VWS V14.01,2013-07-23 13:41:00,
2013-07-23 09:51:00,77.4,76.8,29.50,NW,312,2.0,6.0,98,0.00,,,0.08,VWS V14.01,2013-07-23 13:51:00,
2013-07-23 10:01:00,77.9,77.3,29.49,WNW,302,1.0,4.0,98,0.00,,,0.08,VWS V14.01,2013-07-23 14:01:00,
2013-07-23 10:11:00,78.0,76.5,29.49,WNW,300,1.0,6.0,95,0.00,,,0.08,VWS V14.01,2013-07-23 14:11:00,
2013-07-23 10:21:00,78.2,76.7,29.49,NNE,33,0.0,5.0,95,0.00,,,0.08,VWS V14.01,2013-07-23 14:21:00,
2013-07-23 10:31:00,78.5,76.3,29.49,SW,222,1.0,4.0,93,0.00,,,0.08,VWS V14.01,2013-07-23 14:31:00,
2013-07-23 10:41:00,78.9,75.7,29.49,WNW,300,1.0,4.0,90,0.00,,,0.08,VWS V14.01,2013-07-23 14:41:00,
2013-07-23 10:51:00,79.4,76.2,29.49,NW,322,1.0,7.0,90,0.00,,,0.08,VWS V14.01,2013-07-23 14:51:00,
2013-07-23 11:01:00,79.3,75.4,29.50,WSW,250,2.0,6.0,88,0.00,,,0.08,VWS V14.01,2013-07-23 15:01:00,
2013-07-23 11:11:00,79.2,75.0,29.50,WSW,252,2.0,6.0,87,0.00,,,0.08,VWS V14.01,2013-07-23 15:11:00,
2013-07-23 11:21:00,78.9,74.4,29.50,ENE,61,2.0,6.0,86,0.00,,,0.08,VWS V14.01,2013-07-23 15:21:00,
2013-07-23 11:31:00,79.0,74.5,29.49,NW,304,1.0,10.0,86,0.00,,,0.08,VWS V14.01,2013-07-23 15:31:00,
2013-07-23 11:41:00,79.2,75.0,29.49,SW,235,2.0,4.0,87,0.00,,,0.08,VWS V14.01,2013-07-23 15:41:00,
2013-07-23 11:51:00,79.6,75.1,29.49,West,262,0.0,5.0,86,0.00,,,0.08,VWS V14.01,2013-07-23 15:51:00,
2013-07-23 12:01:00,79.7,74.8,29.49,WSW,238,3.0,6.0,85,0.01,,,0.09,VWS V14.01,2013-07-23 16:01:00,
2013-07-23 12:11:00,79.9,75.3,29.49,WSW,251,1.0,5.0,86,0.01,,,0.09,VWS V14.01,2013-07-23 16:11:00,
2013-07-23 12:21:00,80.3,75.7,29.49,WNW,284,2.0,5.0,86,0.01,,,0.09,VWS V14.01,2013-07-23 16:21:00,
2013-07-23 12:31:00,80.5,75.2,29.49,WNW,298,1.0,6.0,84,0.01,,,0.09,VWS V14.01,2013-07-23 16:31:00,
2013-07-23 12:41:00,80.6,75.0,29.49,NE,38,3.0,5.0,83,0.01,,,0.09,VWS V14.01,2013-07-23 16:41:00,
2013-07-23 12:51:00,80.6,75.0,29.48,NE,42,1.0,5.0,83,0.01,,,0.09,VWS V14.01,2013-07-23 16:51:00,
2013-07-23 13:01:00,80.8,75.9,29.48,NE,38,1.0,5.0,85,0.01,,,0.09,VWS V14.01,2013-07-23 17:01:00,
2013-07-23 13:11:00,81.3,75.7,29.48,WSW,243,3.0,7.0,83,0.00,,,0.09,VWS V14.01,2013-07-23 17:11:00,
2013-07-23 13:21:00,81.6,76.3,29.47,WSW,248,3.0,6.0,84,0.00,,,0.09,VWS V14.01,2013-07-23 17:21:00,
2013-07-23 13:31:00,81.7,75.7,29.47,West,279,1.0,5.0,82,0.00,,,0.09,VWS V14.01,2013-07-23 17:31:00,
2013-07-23 13:41:00,81.8,75.4,29.47,NE,52,2.0,6.0,81,0.00,,,0.09,VWS V14.01,2013-07-23 17:41:00,
2013-07-23 13:51:00,81.8,74.7,29.47,WSW,246,3.0,4.0,79,0.00,,,0.09,VWS V14.01,2013-07-23 17:51:00,
2013-07-23 14:11:00,81.2,75.2,29.46,West,259,0.0,4.0,82,0.00,,,0.09,VWS V14.01,2013-07-23 18:11:00,
2013-07-23 14:21:00,81.3,74.5,29.46,SSW,202,1.0,4.0,80,0.00,,,0.09,VWS V14.01,2013-07-23 18:21:00,
2013-07-23 14:31:00,80.9,74.5,29.46,West,277,2.0,6.0,81,0.00,,,0.09,VWS V14.01,2013-07-23 18:31:00,
2013-07-23 14:41:00,80.7,74.0,29.46,WSW,239,1.0,4.0,80,0.00,,,0.09,VWS V14.01,2013-07-23 18:41:00,
2013-07-23 14:51:00,80.7,74.7,29.46,WNW,283,2.0,4.0,82,0.00,,,0.09,VWS V14.01,2013-07-23 18:51:00,
2013-07-23 15:01:00,81.2,75.6,29.46,WSW,247,1.0,5.0,83,0.00,,,0.09,VWS V14.01,2013-07-23 19:01:00,
2013-07-23 15:11:00,81.7,75.3,29.46,West,273,1.0,3.0,81,0.00,,,0.09,VWS V14.01,2013-07-23 19:11:00,
2013-07-23 15:21:00,81.5,75.1,29.46,NE,39,5.0,7.0,81,0.00,,,0.09,VWS V14.01,2013-07-23 19:21:00,
2013-07-23 15:41:00,81.2,75.9,29.46,WNW,286,2.0,5.0,84,0.00,,,0.09,VWS V14.01,2013-07-23 19:41:00,
2013-07-23 15:51:00,82.0,76.7,29.46,WSW,250,1.0,5.0,84,0.00,,,0.09,VWS V14.01,2013-07-23 19:51:00,
2013-07-23 16:11:00,84.3,77.1,29.45,WSW,246,1.0,6.0,79,0.00,,,0.09,VWS V14.01,2013-07-23 20:11:00,
2013-07-23 16:20:00,85.2,76.8,29.45,NW,307,2.0,4.0,76,0.00,,,0.09,VWS V14.01,2013-07-23 20:20:00,
2013-07-23 16:31:00,85.7,77.3,29.44,NW,313,3.0,4.0,76,0.00,,,0.09,VWS V14.01,2013-07-23 20:31:00,
2013-07-23 16:41:00,86.1,76.8,29.44,WNW,284,0.0,5.0,74,0.00,,,0.09,VWS V14.01,2013-07-23 20:41:00,
2013-07-23 16:51:00,86.7,77.4,29.44,NW,316,2.0,3.0,74,0.00,,,0.09,VWS V14.01,2013-07-23 20:51:00,
2013-07-23 17:01:00,87.3,77.2,29.43,SW,231,2.0,4.0,72,0.00,,,0.09,VWS V14.01,2013-07-23 21:01:00,
2013-07-23 17:11:00,87.4,77.3,29.43,West,259,1.0,3.0,72,0.00,,,0.09,VWS V14.01,2013-07-23 21:11:00,
2013-07-23 17:21:00,87.4,76.8,29.43,NW,316,2.0,6.0,71,0.00,,,0.09,VWS V14.01,2013-07-23 21:21:00,
2013-07-23 17:31:00,87.4,76.4,29.43,West,265,1.0,4.0,70,0.00,,,0.09,VWS V14.01,2013-07-23 21:31:00,
2013-07-23 17:41:00,87.0,76.5,29.43,West,263,1.0,5.0,71,0.00,,,0.09,VWS V14.01,2013-07-23 21:41:00,
2013-07-23 17:51:00,86.4,75.9,29.43,NW,319,2.0,5.0,71,0.00,,,0.09,VWS V14.01,2013-07-23 21:51:00,
2013-07-23 18:11:00,86.2,76.5,29.42,WNW,290,1.0,3.0,73,0.00,,,0.09,VWS V14.01,2013-07-23 22:11:00,
2013-07-23 18:21:00,86.2,76.1,29.42,South,171,0.0,4.0,72,0.00,,,0.09,VWS V14.01,2013-07-23 22:21:00,
2013-07-23 18:31:00,84.7,75.9,29.44,SE,142,1.0,3.0,75,0.00,,,0.09,VWS V14.01,2013-07-23 22:31:00,
2013-07-23 18:41:00,83.2,75.2,29.44,SW,220,1.0,3.0,77,0.00,,,0.09,VWS V14.01,2013-07-23 22:41:00,
2013-07-23 18:51:00,82.3,75.1,29.44,WSW,243,0.0,4.0,79,0.00,,,0.09,VWS V14.01,2013-07-23 22:51:00,
2013-07-23 19:01:00,81.3,74.9,29.44,SSE,151,0.0,2.0,81,0.00,,,0.09,VWS V14.01,2013-07-23 23:01:00,
2013-07-23 19:21:00,79.6,72.5,29.46,SSW,206,2.0,11.0,79,0.00,,,0.09,VWS V14.01,2013-07-23 23:21:00,
2013-07-23 19:31:00,78.9,71.1,29.47,SE,126,1.0,12.0,77,0.00,,,0.09,VWS V14.01,2013-07-23 23:31:00,
2013-07-23 19:41:00,77.2,72.3,29.47,SW,232,0.0,6.0,85,0.19,,,0.28,VWS V14.01,2013-07-23 23:41:00,
2013-07-23 19:51:00,75.4,72.9,29.46,SW,232,1.0,2.0,92,0.25,,,0.34,VWS V14.01,2013-07-23 23:51:00,
2013-07-23 20:01:00,74.5,72.3,29.46,SW,232,0.0,2.0,93,0.25,,,0.34,VWS V14.01,2013-07-24 00:01:00,
2013-07-23 20:11:00,74.3,73.1,29.46,SW,232,0.0,1.0,96,0.25,,,0.34,VWS V14.01,2013-07-24 00:11:00,
2013-07-23 20:21:00,74.3,73.1,29.46,SW,232,0.0,1.0,96,0.25,,,0.34,VWS V14.01,2013-07-24 00:21:00,
2013-07-23 20:41:00,73.8,72.6,29.46,SW,232,0.0,1.0,96,0.25,,,0.34,VWS V14.01,2013-07-24 00:41:00,
2013-07-23 20:51:00,73.5,72.3,29.46,SW,232,0.0,1.0,96,0.06,,,0.34,VWS V14.01,2013-07-24 00:51:00,
2013-07-23 21:01:00,73.6,72.7,29.46,SW,232,0.0,1.0,97,0.00,,,0.34,VWS V14.01,2013-07-24 01:01:00,
2013-07-23 21:11:00,73.4,72.2,29.46,SW,232,0.0,1.0,96,0.00,,,0.34,VWS V14.01,2013-07-24 01:11:00,
2013-07-23 21:21:00,73.2,72.3,29.46,SW,232,0.0,1.0,97,0.00,,,0.34,VWS V14.01,2013-07-24 01:21:00,
2013-07-23 21:31:00,73.2,72.3,29.46,SW,232,0.0,1.0,97,0.00,,,0.34,VWS V14.01,2013-07-24 01:31:00,
2013-07-23 21:41:00,73.3,72.7,29.46,SW,232,0.0,1.0,98,0.00,,,0.34,VWS V14.01,2013-07-24 01:41:00,
2013-07-23 21:51:00,73.2,72.6,29.47,South,190,3.0,4.0,98,0.00,,,0.34,VWS V14.01,2013-07-24 01:51:00,
2013-07-23 22:01:00,72.3,70.5,29.49,NE,43,3.0,6.0,94,0.02,,,0.36,VWS V14.01,2013-07-24 02:01:00,
2013-07-23 22:11:00,70.5,69.3,29.49,West,264,1.0,15.0,96,0.27,,,0.61,VWS V14.01,2013-07-24 02:11:00,
2013-07-23 22:21:00,70.0,69.1,29.50,SW,235,0.0,6.0,97,0.98,,,1.32,VWS V14.01,2013-07-24 02:21:00,
2013-07-23 22:31:00,70.1,69.5,29.48,SW,234,0.0,2.0,98,1.03,,,1.37,VWS V14.01,2013-07-24 02:31:00,
2013-07-23 22:41:00,70.2,69.6,29.48,SW,234,0.0,2.0,98,1.03,,,1.37,VWS V14.01,2013-07-24 02:41:00,
2013-07-23 22:51:00,70.0,69.4,29.48,SW,234,2.0,2.0,98,1.03,,,1.37,VWS V14.01,2013-07-24 02:51:00,
2013-07-23 23:01:00,70.0,69.4,29.47,SW,234,1.0,2.0,98,1.03,,,1.37,VWS V14.01,2013-07-24 03:01:00,
2013-07-23 23:11:00,69.9,69.3,29.47,SW,235,0.0,1.0,98,1.01,,,1.37,VWS V14.01,2013-07-24 03:11:00,
2013-07-23 23:21:00,69.6,69.0,29.47,SW,234,1.0,2.0,98,0.76,,,1.37,VWS V14.01,2013-07-24 03:21:00,
2013-07-23 23:31:00,69.4,68.8,29.48,SW,235,0.0,2.0,98,0.05,,,1.37,VWS V14.01,2013-07-24 03:31:00,